createdAt,value
2022-10-12T00:01:16.230Z,32.53
2022-10-12T00:03:42.747Z,32.97
2022-10-12T00:06:19.806Z,32.10
2022-10-12T00:08:47.322Z,32.42
2022-10-12T00:11:17.462Z,31.15
2022-10-12T00:13:43.882Z,31.75
2022-10-12T00:16:12.768Z,33.75
2022-10-12T00:18:39.787Z,38.35
2022-10-12T00:21:10.266Z,37.10
2022-10-12T00:23:38.204Z,31.33
2022-10-12T00:26:07.670Z,32.50
2022-10-12T00:28:34.916Z,32.28
2022-10-12T00:31:02.073Z,31.90
2022-10-12T00:33:29.311Z,32.45
2022-10-12T00:35:55.764Z,32.83
2022-10-12T00:38:22.939Z,25.33
2022-10-12T00:40:49.662Z,26.60
2022-10-12T00:43:35.919Z,27.23
2022-10-12T00:46:09.818Z,29.17
2022-10-12T00:48:36.900Z,30.52
2022-10-12T00:51:04.419Z,29.95
2022-10-12T00:53:37.587Z,37.28
2022-10-12T00:56:10.874Z,36.72
2022-10-12T00:58:37.673Z,41.07
2022-10-12T01:01:05.706Z,39.40
2022-10-12T01:03:32.459Z,39.28
2022-10-12T01:06:00.268Z,39.03
2022-10-12T01:08:28.919Z,39.15
2022-10-12T01:10:55.459Z,37.88
2022-10-12T01:13:21.952Z,38.72
2022-10-12T01:16:11.467Z,42.13
2022-10-12T01:18:50.305Z,38.70
2022-10-12T01:21:23.404Z,37.28
2022-10-12T01:24:23.571Z,38.42
2022-10-12T01:26:53.119Z,36.47
2022-10-12T01:29:49.091Z,36.88
2022-10-12T01:32:25.117Z,38.70
2022-10-12T01:35:25.432Z,34.00
2022-10-12T01:38:27.609Z,32.53
2022-10-12T01:41:36.191Z,32.70
2022-10-12T01:44:02.861Z,29.13
2022-10-12T01:46:29.130Z,28.77
2022-10-12T01:48:58.539Z,28.80
2022-10-12T01:51:59.470Z,27.25
2022-10-12T01:54:46.833Z,26.65
2022-10-12T01:57:36.207Z,23.65
2022-10-12T02:00:21.002Z,24.00
2022-10-12T02:02:58.439Z,27.75
2022-10-12T02:05:38.406Z,27.08
2022-10-12T02:08:14.035Z,29.08
2022-10-12T02:10:50.483Z,27.65
2022-10-12T02:13:20.054Z,28.10
2022-10-12T02:15:48.627Z,28.55
2022-10-12T02:18:18.630Z,31.77
2022-10-12T02:20:51.087Z,29.98
2022-10-12T02:23:19.122Z,30.00
2022-10-12T02:25:47.029Z,29.17
2022-10-12T02:28:17.770Z,28.45
2022-10-12T02:30:50.433Z,28.80
2022-10-12T02:33:35.441Z,29.65
2022-10-12T02:36:10.270Z,30.55
2022-10-12T02:38:46.554Z,32.30
2022-10-12T02:41:19.770Z,28.50
2022-10-12T02:43:56.574Z,29.67
2022-10-12T02:46:26.068Z,28.42
2022-10-12T02:48:54.965Z,27.88
2022-10-12T02:51:23.619Z,26.65
2022-10-12T02:53:50.677Z,25.35
2022-10-12T02:56:17.061Z,23.90
2022-10-12T02:58:45.688Z,22.88
2022-10-12T03:01:13.578Z,20.13
2022-10-12T03:03:40.657Z,21.95
2022-10-12T03:06:07.490Z,22.33
2022-10-12T03:08:33.923Z,20.73
2022-10-12T03:11:07.806Z,21.90
2022-10-12T03:13:34.521Z,22.02
2022-10-12T03:16:05.956Z,21.40
2022-10-12T03:18:32.782Z,22.95
2022-10-12T03:20:59.108Z,27.17
2022-10-12T03:23:26.193Z,28.17
2022-10-12T03:25:52.642Z,29.83
2022-10-12T03:28:19.442Z,26.33
2022-10-12T03:30:45.989Z,24.25
2022-10-12T03:33:13.078Z,26.45
2022-10-12T03:35:39.821Z,23.13
2022-10-12T03:38:06.580Z,24.90
2022-10-12T03:40:32.962Z,23.10
2022-10-12T03:42:59.350Z,19.58
2022-10-12T03:45:25.654Z,19.85
2022-10-12T03:47:51.993Z,21.63
2022-10-12T03:50:18.417Z,21.30
2022-10-12T03:52:44.772Z,22.15
2022-10-12T03:55:13.956Z,19.38
2022-10-12T03:57:40.895Z,20.63
2022-10-12T04:00:08.218Z,20.08
2022-10-12T04:02:34.710Z,19.20
2022-10-12T04:05:01.115Z,19.70
2022-10-12T04:07:27.592Z,22.98
2022-10-12T04:09:54.105Z,22.42
2022-10-12T04:12:20.561Z,20.33
2022-10-12T04:14:46.929Z,19.48
2022-10-12T04:17:16.307Z,19.08
2022-10-12T04:19:43.385Z,19.67
2022-10-12T04:22:09.777Z,20.67
2022-10-12T04:24:36.466Z,20.95
2022-10-12T04:27:03.282Z,21.60
2022-10-12T04:29:29.703Z,27.52
2022-10-12T04:31:56.342Z,27.10
2022-10-12T04:34:23.084Z,28.92
2022-10-12T04:36:50.429Z,30.50
2022-10-12T04:39:32.412Z,30.92
2022-10-12T04:41:58.796Z,28.38
2022-10-12T04:44:29.717Z,27.13
2022-10-12T04:46:58.706Z,25.27
2022-10-12T04:49:25.031Z,26.20
2022-10-12T04:51:51.350Z,22.95
2022-10-12T04:54:17.763Z,22.52
2022-10-12T04:56:47.717Z,24.98
2022-10-12T04:59:14.611Z,23.10
2022-10-12T05:01:41.036Z,23.08
2022-10-12T05:04:07.443Z,21.77
2022-10-12T05:06:33.818Z,21.35
2022-10-12T05:09:00.134Z,21.48
2022-10-12T05:11:26.478Z,20.58
2022-10-12T05:13:52.825Z,19.52
2022-10-12T05:16:19.160Z,19.98
2022-10-12T05:18:45.473Z,19.38
2022-10-12T05:21:11.818Z,26.90
2022-10-12T05:23:38.136Z,23.58
2022-10-12T05:26:04.567Z,23.27
2022-10-12T05:28:31.021Z,25.63
2022-10-12T05:30:57.395Z,29.48
2022-10-12T05:33:23.749Z,27.05
2022-10-12T05:35:56.101Z,24.67
2022-10-12T05:38:22.885Z,27.13
2022-10-12T05:40:49.263Z,23.30
2022-10-12T05:43:15.609Z,22.88
2022-10-12T05:45:43.138Z,25.20
2022-10-12T05:48:09.511Z,23.40
2022-10-12T05:50:35.855Z,22.70
2022-10-12T05:53:02.205Z,21.98
2022-10-12T05:55:28.622Z,23.50
2022-10-12T05:57:55.115Z,23.30
2022-10-12T06:00:21.996Z,22.45
2022-10-12T06:02:48.474Z,22.17
2022-10-12T06:05:15.168Z,26.67
2022-10-12T06:07:41.685Z,26.88
2022-10-12T06:10:08.922Z,28.23
2022-10-12T06:12:35.501Z,28.80
2022-10-12T06:15:02.050Z,29.63
2022-10-12T06:17:28.383Z,27.27
2022-10-12T06:19:54.735Z,27.88
2022-10-12T06:22:25.048Z,27.85
2022-10-12T06:24:54.442Z,25.92
2022-10-12T06:27:20.775Z,26.23
2022-10-12T06:29:47.126Z,27.20
2022-10-12T06:32:13.608Z,27.60
2022-10-12T06:34:39.960Z,27.27
2022-10-12T06:37:06.293Z,25.90
2022-10-12T06:39:32.610Z,28.00
2022-10-12T06:41:59.493Z,26.73
2022-10-12T06:44:26.157Z,26.80
2022-10-12T06:46:53.421Z,27.55
2022-10-12T06:49:19.914Z,29.17
2022-10-12T06:51:46.298Z,32.58
2022-10-12T06:54:12.760Z,27.63
2022-10-12T06:56:39.607Z,27.83
2022-10-12T06:59:06.328Z,30.35
2022-10-12T07:01:32.882Z,31.63
2022-10-12T07:04:00.908Z,29.55
2022-10-12T07:06:27.479Z,29.88
2022-10-12T07:08:54.582Z,32.63
2022-10-12T07:11:21.308Z,31.27
2022-10-12T07:13:47.671Z,35.55
2022-10-12T07:16:14.041Z,34.58
2022-10-12T07:18:40.490Z,35.22
2022-10-12T07:21:06.950Z,39.70
2022-10-12T07:23:34.508Z,39.22
2022-10-12T07:26:01.604Z,41.42
2022-10-12T07:28:31.570Z,43.47
2022-10-12T07:31:20.896Z,46.33
2022-10-12T07:33:47.225Z,52.90
2022-10-12T07:36:15.613Z,46.13
2022-10-12T07:38:45.992Z,43.47
2022-10-12T07:41:13.114Z,37.55
2022-10-12T07:43:39.424Z,40.28
2022-10-12T07:46:06.325Z,32.78
2022-10-12T07:48:33.331Z,35.55
2022-10-12T07:51:07.449Z,30.60
2022-10-12T07:53:35.095Z,29.65
2022-10-12T07:56:02.523Z,31.00
2022-10-12T07:58:29.202Z,25.25
2022-10-12T08:00:55.529Z,35.53
2022-10-12T08:03:21.991Z,31.80
2022-10-12T08:05:48.862Z,30.58
2022-10-12T08:08:15.351Z,32.08
2022-10-12T08:10:41.780Z,30.42
2022-10-12T08:13:08.137Z,32.85
2022-10-12T08:15:35.869Z,33.50
2022-10-12T08:18:02.185Z,31.67
2022-10-12T08:20:28.556Z,34.90
2022-10-12T08:22:55.177Z,31.40
2022-10-12T08:25:21.552Z,33.30
2022-10-12T08:27:48.429Z,32.45
2022-10-12T08:30:14.922Z,32.38
2022-10-12T08:32:41.404Z,31.85
2022-10-12T08:35:07.775Z,26.92
2022-10-12T08:37:34.125Z,29.13
2022-10-12T08:42:59.335Z,29.40
2022-10-12T08:46:01.828Z,29.15
2022-10-12T08:48:34.177Z,28.48
2022-10-12T08:51:05.294Z,28.00
2022-10-12T08:53:55.971Z,28.88
2022-10-12T08:56:24.212Z,27.13
2022-10-12T08:58:52.948Z,29.15
2022-10-12T09:01:37.447Z,29.15
2022-10-12T09:04:28.422Z,32.08
2022-10-12T09:07:16.906Z,37.28
2022-10-12T09:10:15.638Z,31.50
2022-10-12T09:12:50.955Z,34.63
2022-10-12T09:15:30.095Z,30.83
2022-10-12T09:17:58.304Z,35.03
2022-10-12T09:23:58.148Z,31.55
2022-10-12T09:26:37.015Z,28.50
2022-10-12T09:29:23.384Z,29.63
2022-10-12T09:31:55.933Z,26.77
2022-10-12T09:34:24.495Z,32.45
2022-10-12T09:36:51.130Z,28.40
2022-10-12T09:39:23.481Z,33.03
2022-10-12T09:41:53.257Z,33.45
2022-10-12T09:44:36.214Z,33.78
2022-10-12T09:47:06.166Z,33.03
2022-10-12T09:49:46.992Z,33.42
2022-10-12T09:52:15.459Z,32.50
2022-10-12T09:54:48.433Z,32.92
2022-10-12T09:57:36.764Z,32.88
2022-10-12T10:00:35.833Z,38.05
2022-10-12T10:03:02.792Z,33.40
2022-10-12T10:05:31.650Z,32.10
2022-10-12T10:08:23.624Z,38.13
2022-10-12T10:10:53.956Z,30.88
2022-10-12T10:13:37.306Z,26.23
2022-10-12T10:16:09.373Z,27.27
2022-10-12T10:19:11.460Z,24.67
2022-10-12T10:21:43.684Z,16.40
2022-10-12T10:24:43.474Z,12.25
2022-10-12T10:27:34.165Z,11.23
2022-10-12T10:30:29.970Z,13.18
2022-10-12T10:33:21.635Z,11.05
2022-10-12T10:35:58.568Z,13.13
2022-10-12T10:38:25.279Z,16.77
2022-10-12T10:40:54.411Z,13.85
2022-10-12T10:43:25.877Z,17.17
2022-10-12T10:45:56.639Z,19.42
2022-10-12T10:48:27.808Z,17.48
2022-10-12T10:51:00.356Z,15.77
2022-10-12T10:53:31.251Z,13.40
2022-10-12T10:56:26.109Z,10.50
2022-10-12T10:58:59.833Z,10.65
2022-10-12T11:01:35.957Z,13.23
2022-10-12T11:04:19.122Z,11.00
2022-10-12T11:06:52.020Z,15.85
2022-10-12T11:09:23.396Z,14.98
2022-10-12T11:11:57.418Z,12.95
2022-10-12T11:14:30.997Z,13.25
2022-10-12T11:17:07.379Z,13.35
2022-10-12T11:19:42.196Z,10.48
2022-10-12T11:22:20.266Z,11.88
2022-10-12T11:25:09.296Z,12.38
2022-10-12T11:27:40.647Z,14.80
2022-10-12T11:30:16.826Z,10.07
2022-10-12T11:33:05.835Z,10.25
2022-10-12T11:35:36.321Z,11.77
2022-10-12T11:38:26.978Z,14.43
2022-10-12T11:41:19.116Z,10.20
2022-10-12T11:44:03.818Z,9.75
2022-10-12T11:47:03.044Z,12.20
2022-10-12T11:49:49.370Z,12.65
2022-10-12T11:52:17.479Z,10.48
2022-10-12T11:54:53.689Z,11.00
2022-10-12T11:57:26.934Z,12.77
2022-10-12T12:00:01.397Z,10.98
2022-10-12T12:02:37.818Z,11.13
2022-10-12T12:05:05.357Z,11.95
2022-10-12T12:07:49.380Z,12.43
2022-10-12T12:10:27.951Z,11.85
2022-10-12T12:13:08.006Z,10.75
2022-10-12T12:15:34.377Z,12.38
2022-10-12T12:18:23.403Z,11.15
2022-10-12T12:20:49.697Z,11.77
2022-10-12T12:23:27.074Z,11.95
2022-10-12T12:26:16.278Z,13.85
2022-10-12T12:28:46.406Z,12.43
2022-10-12T12:32:13.359Z,12.25
2022-10-12T12:34:54.458Z,17.02
2022-10-12T12:37:26.700Z,11.85
2022-10-12T12:39:56.530Z,13.13
2022-10-12T12:42:32.019Z,11.27
2022-10-12T12:45:38.891Z,12.10
2022-10-12T12:48:09.696Z,11.65
2022-10-12T12:50:38.784Z,12.38
2022-10-12T12:53:15.920Z,13.95
2022-10-12T12:56:04.621Z,12.50
2022-10-12T12:58:58.009Z,14.85
2022-10-12T13:01:44.559Z,10.93
2022-10-12T13:04:43.321Z,11.25
2022-10-12T13:07:50.155Z,11.30
2022-10-12T13:10:35.127Z,10.32
2022-10-12T13:13:13.617Z,11.50
2022-10-12T13:16:57.139Z,10.40
2022-10-12T13:19:19.850Z,10.30
2022-10-12T13:21:51.444Z,15.80
2022-10-12T13:24:40.744Z,12.15
2022-10-12T13:27:37.941Z,12.05
2022-10-12T13:30:10.374Z,11.75
2022-10-12T13:32:49.890Z,11.23
2022-10-12T13:36:02.287Z,11.30
2022-10-12T13:38:30.678Z,11.70
2022-10-12T13:41:08.284Z,13.07
2022-10-12T13:43:45.749Z,10.93
2022-10-12T13:46:14.945Z,11.82
2022-10-12T13:49:05.951Z,10.80
2022-10-12T13:51:36.994Z,10.57
2022-10-12T13:54:14.673Z,10.82
2022-10-12T13:56:41.572Z,11.52
2022-10-12T13:59:18.838Z,13.30
2022-10-12T14:05:22.335Z,15.85
2022-10-12T14:07:51.540Z,13.65
2022-10-12T14:10:26.372Z,12.85
2022-10-12T14:12:54.033Z,12.70
2022-10-12T14:15:22.079Z,12.25
2022-10-12T14:17:52.794Z,11.48
2022-10-12T14:20:38.225Z,12.38
2022-10-12T14:23:13.510Z,13.15
2022-10-12T14:25:51.241Z,12.23
2022-10-12T14:28:30.986Z,12.77
2022-10-12T14:30:57.391Z,12.85
2022-10-12T14:33:52.522Z,13.30
2022-10-12T14:36:22.202Z,11.77
2022-10-12T14:38:50.246Z,14.05
2022-10-12T14:41:38.114Z,12.48
2022-10-12T14:44:13.507Z,11.75
2022-10-12T14:46:42.810Z,12.10
2022-10-12T14:49:18.720Z,11.93
2022-10-12T14:51:45.533Z,11.95
2022-10-12T14:54:12.306Z,12.27
2022-10-12T14:56:39.403Z,12.60
2022-10-12T14:59:05.798Z,12.35
2022-10-12T15:01:32.227Z,12.93
2022-10-12T15:03:58.591Z,11.50
2022-10-12T15:06:25.060Z,11.32
2022-10-12T15:08:52.445Z,10.15
2022-10-12T15:11:19.118Z,11.50
2022-10-12T15:13:45.605Z,11.27
2022-10-12T15:16:20.469Z,11.60
2022-10-12T15:18:47.173Z,11.20
2022-10-12T15:21:13.613Z,10.88
2022-10-12T15:23:40.140Z,11.32
2022-10-12T15:26:06.722Z,11.30
2022-10-12T15:28:33.187Z,12.05
2022-10-12T15:31:16.905Z,13.20
2022-10-12T15:33:44.479Z,10.48
2022-10-12T15:36:11.076Z,10.07
2022-10-12T15:38:37.536Z,10.48
2022-10-12T15:41:04.749Z,10.75
2022-10-12T15:43:32.980Z,13.50
2022-10-12T15:46:01.242Z,10.57
2022-10-12T15:48:28.286Z,11.48
2022-10-12T15:50:54.799Z,12.00
2022-10-12T15:53:25.501Z,11.45
2022-10-12T15:55:54.041Z,11.73
2022-10-12T15:58:21.540Z,13.57
2022-10-12T16:00:48.255Z,17.70
2022-10-12T16:03:19.177Z,17.83
2022-10-12T16:05:49.122Z,17.77
2022-10-12T16:08:15.491Z,16.00
2022-10-12T16:10:42.632Z,17.15
2022-10-12T16:13:12.903Z,17.17
2022-10-12T16:15:39.644Z,15.48
2022-10-12T16:18:06.713Z,15.88
2022-10-12T16:20:37.059Z,17.40
2022-10-12T16:23:06.467Z,21.88
2022-10-12T16:25:34.447Z,20.23
2022-10-12T16:28:00.796Z,21.50
2022-10-12T16:30:27.464Z,17.63
2022-10-12T16:32:54.481Z,17.08
2022-10-12T16:35:21.254Z,20.52
2022-10-12T16:37:47.599Z,24.42
2022-10-12T16:40:15.713Z,20.77
2022-10-12T16:42:42.792Z,25.00
2022-10-12T16:45:09.788Z,24.55
2022-10-12T16:47:40.482Z,30.35
2022-10-12T16:50:09.487Z,38.38
2022-10-12T16:52:35.861Z,33.95
2022-10-12T16:55:02.284Z,35.63
2022-10-12T16:57:28.698Z,29.25
2022-10-12T16:59:55.121Z,29.75
2022-10-12T17:02:21.590Z,33.20
2022-10-12T17:04:47.991Z,31.02
2022-10-12T17:07:15.054Z,37.13
2022-10-12T17:09:41.639Z,38.80
2022-10-12T17:12:08.299Z,35.15
2022-10-12T17:14:34.706Z,34.88
2022-10-12T17:17:01.351Z,29.25
2022-10-12T17:19:32.990Z,29.17
2022-10-12T17:22:00.900Z,30.08
2022-10-12T17:24:29.159Z,26.00
2022-10-12T17:26:56.437Z,25.25
2022-10-12T17:29:25.162Z,27.02
2022-10-12T17:31:53.000Z,31.35
2022-10-12T17:34:28.591Z,30.98
2022-10-12T17:36:56.553Z,28.45
2022-10-12T17:39:24.261Z,28.20
2022-10-12T17:41:50.822Z,28.02
2022-10-12T17:44:17.269Z,24.30
2022-10-12T17:46:51.137Z,26.15
2022-10-12T17:49:24.235Z,24.88
2022-10-12T17:51:51.190Z,23.67
2022-10-12T17:54:19.107Z,25.67
2022-10-12T17:56:45.750Z,26.75
2022-10-12T17:59:15.034Z,26.75
2022-10-12T18:01:41.613Z,26.50
2022-10-12T18:04:08.733Z,26.52
2022-10-12T18:06:35.098Z,26.08
2022-10-12T18:09:04.398Z,24.88
2022-10-12T18:11:31.078Z,25.00
2022-10-12T18:13:57.711Z,27.95
2022-10-12T18:16:26.847Z,27.27
2022-10-12T18:18:54.720Z,27.58
2022-10-12T18:21:23.931Z,27.38
2022-10-12T18:23:51.002Z,28.13
2022-10-12T18:26:22.048Z,28.02
2022-10-12T18:28:55.469Z,28.00
2022-10-12T18:31:24.458Z,24.63
2022-10-12T18:33:51.349Z,23.92
2022-10-12T18:36:18.670Z,24.35
2022-10-12T18:38:45.139Z,24.23
2022-10-12T18:41:15.241Z,26.33
2022-10-12T18:43:41.732Z,24.20
2022-10-12T18:46:10.887Z,23.77
2022-10-12T18:48:37.580Z,27.27
2022-10-12T18:51:15.302Z,25.77
2022-10-12T18:53:41.962Z,27.98
2022-10-12T18:56:09.804Z,34.20
2022-10-12T18:58:38.117Z,38.13
2022-10-12T19:01:23.391Z,31.10
2022-10-12T19:03:50.856Z,27.40
2022-10-12T19:06:26.242Z,28.58
2022-10-12T19:08:55.273Z,30.45
2022-10-12T19:11:23.134Z,29.90
2022-10-12T19:14:03.988Z,28.83
2022-10-12T19:16:32.127Z,28.77
2022-10-12T19:19:04.816Z,26.75
2022-10-12T19:21:31.485Z,27.40
2022-10-12T19:23:58.117Z,32.55
2022-10-12T19:26:27.417Z,31.65
2022-10-12T19:28:55.466Z,31.45
2022-10-12T19:31:25.923Z,31.38
2022-10-12T19:33:58.137Z,30.33
2022-10-12T19:36:24.974Z,33.47
2022-10-12T19:38:51.307Z,29.15
2022-10-12T19:41:17.641Z,27.17
2022-10-12T19:43:44.099Z,25.83
2022-10-12T19:46:12.533Z,30.70
2022-10-12T19:48:41.895Z,28.45
2022-10-12T19:51:11.665Z,32.35
2022-10-12T19:53:39.048Z,31.42
2022-10-12T19:56:10.561Z,36.42
2022-10-12T19:58:37.690Z,36.13
2022-10-12T20:01:10.528Z,41.70
2022-10-12T20:03:37.323Z,37.05
2022-10-12T20:06:07.758Z,38.45
2022-10-12T20:08:34.521Z,35.88
2022-10-12T20:11:00.875Z,37.08
2022-10-12T20:13:27.288Z,36.40
2022-10-12T20:15:54.866Z,39.33
2022-10-12T20:18:21.639Z,38.83
2022-10-12T20:20:48.424Z,40.47
2022-10-12T20:23:15.263Z,46.50
2022-10-12T20:25:52.947Z,44.50
2022-10-12T20:28:19.927Z,37.15
2022-10-12T20:30:47.221Z,36.72
2022-10-12T20:33:14.151Z,37.00
2022-10-12T20:35:48.034Z,34.15
2022-10-12T20:38:14.988Z,34.17
2022-10-12T20:40:41.358Z,32.95
2022-10-12T20:43:08.195Z,33.97
2022-10-12T20:45:35.873Z,30.77
2022-10-12T20:48:02.567Z,31.52
2022-10-12T20:50:28.968Z,31.70
2022-10-12T20:52:55.343Z,30.55
2022-10-12T20:55:22.167Z,29.65
2022-10-12T20:57:48.603Z,31.73
2022-10-12T21:00:15.192Z,34.35
2022-10-12T21:02:41.625Z,33.83
2022-10-12T21:05:08.644Z,33.65
2022-10-12T21:07:35.624Z,45.28
2022-10-12T21:10:02.112Z,32.30
2022-10-12T21:12:28.443Z,44.60
2022-10-12T21:14:54.809Z,31.73
2022-10-12T21:17:21.125Z,31.77
2022-10-12T21:19:47.498Z,31.83
2022-10-12T21:22:13.845Z,31.25
2022-10-12T21:24:40.149Z,32.30
2022-10-12T21:27:06.484Z,35.88
2022-10-12T21:29:32.798Z,33.35
2022-10-12T21:31:59.136Z,30.33
2022-10-12T21:34:25.591Z,35.72
2022-10-12T21:36:52.087Z,35.13
2022-10-12T21:39:18.559Z,40.28
2022-10-12T21:41:44.955Z,39.05
2022-10-12T21:44:12.117Z,41.38
2022-10-12T21:46:38.632Z,38.75
2022-10-12T21:49:07.812Z,44.38
2022-10-12T21:51:36.504Z,34.15
2022-10-12T21:54:04.234Z,30.15
2022-10-12T21:56:32.612Z,27.50
2022-10-12T21:59:00.401Z,31.80
2022-10-12T22:01:29.467Z,29.90
2022-10-12T22:03:58.213Z,29.27
2022-10-12T22:06:26.475Z,33.97
2022-10-12T22:08:58.324Z,35.53
2022-10-12T22:11:27.089Z,36.47
2022-10-12T22:13:59.114Z,38.42
2022-10-12T22:16:25.630Z,39.67
2022-10-12T22:18:52.014Z,41.28
2022-10-12T22:21:19.009Z,43.75
2022-10-12T22:23:45.917Z,45.83
2022-10-12T22:26:16.701Z,44.80
2022-10-12T22:28:43.716Z,44.65
2022-10-12T22:31:12.667Z,41.78
2022-10-12T22:33:39.022Z,44.55
2022-10-12T22:36:07.299Z,44.28
2022-10-12T22:38:34.969Z,43.88
2022-10-12T22:41:03.316Z,46.88
2022-10-12T22:43:30.655Z,45.03
2022-10-12T22:45:57.189Z,45.83
2022-10-12T22:48:24.456Z,44.25
2022-10-12T22:50:51.681Z,40.97
2022-10-12T22:53:20.410Z,44.95
2022-10-12T22:55:48.099Z,46.85
2022-10-12T22:58:15.034Z,45.20
2022-10-12T23:00:41.718Z,43.53
2022-10-12T23:03:08.058Z,43.30
2022-10-12T23:05:34.400Z,42.72
2022-10-12T23:08:00.808Z,48.15
2022-10-12T23:10:27.180Z,48.08
2022-10-12T23:12:53.632Z,41.85
2022-10-12T23:15:20.058Z,43.40
2022-10-12T23:17:46.387Z,46.50
2022-10-12T23:20:12.705Z,46.83
2022-10-12T23:22:39.079Z,50.05
2022-10-12T23:25:05.844Z,46.75
2022-10-12T23:27:32.205Z,47.65
2022-10-12T23:29:58.557Z,48.22
2022-10-12T23:32:24.944Z,48.90
2022-10-12T23:34:51.375Z,51.13
2022-10-12T23:37:17.756Z,47.83
2022-10-12T23:39:44.060Z,48.83
2022-10-12T23:42:10.447Z,47.92
2022-10-12T23:44:36.772Z,47.67
2022-10-12T23:47:03.185Z,45.70
2022-10-12T23:49:29.488Z,46.75
2022-10-12T23:51:55.799Z,48.67
2022-10-12T23:54:23.337Z,48.97
2022-10-12T23:56:49.663Z,46.72
2022-10-12T23:59:15.997Z,46.80
